createdAt,value
2018-06-22T00:00:59.798Z,1.90
2018-06-22T00:03:28.008Z,1.27
2018-06-22T00:05:56.126Z,1.57
2018-06-22T00:08:24.207Z,1.50
2018-06-22T00:10:52.270Z,1.80
2018-06-22T00:13:20.363Z,1.33
2018-06-22T00:15:48.443Z,1.30
2018-06-22T00:18:16.530Z,2.00
2018-06-22T00:20:44.616Z,1.40
2018-06-22T00:23:12.714Z,1.63
2018-06-22T00:25:40.786Z,1.97
2018-06-22T00:28:08.876Z,1.47
2018-06-22T00:30:36.954Z,1.90
2018-06-22T00:33:05.086Z,1.47
2018-06-22T00:35:32.954Z,1.73
2018-06-22T00:38:01.012Z,1.20
2018-06-22T00:40:29.074Z,1.33
2018-06-22T00:42:57.158Z,1.20
2018-06-22T00:45:25.232Z,1.10
2018-06-22T00:47:53.306Z,1.20
2018-06-22T00:50:21.398Z,1.30
2018-06-22T00:52:49.446Z,1.03
2018-06-22T00:55:17.564Z,1.20
2018-06-22T00:57:45.658Z,1.53
2018-06-22T01:00:13.538Z,1.90
2018-06-22T01:02:41.675Z,2.20
2018-06-22T01:05:09.731Z,1.70
2018-06-22T01:07:37.684Z,1.40
2018-06-22T01:10:05.859Z,1.40
2018-06-22T01:12:33.946Z,2.20
2018-06-22T01:15:02.265Z,1.80
2018-06-22T01:17:31.294Z,2.00
2018-06-22T01:19:59.470Z,1.90
2018-06-22T01:22:27.539Z,1.77
2018-06-22T01:24:55.626Z,1.80
2018-06-22T01:27:23.692Z,1.83
2018-06-22T01:29:51.767Z,2.03
2018-06-22T01:32:19.869Z,2.00
2018-06-22T01:34:47.934Z,2.00
2018-06-22T01:37:16.011Z,1.90
2018-06-22T01:39:44.090Z,2.10
2018-06-22T01:42:12.149Z,1.60
2018-06-22T01:44:40.226Z,1.87
2018-06-22T01:47:08.450Z,2.13
2018-06-22T01:49:36.549Z,2.70
2018-06-22T01:52:04.632Z,1.87
2018-06-22T01:54:32.711Z,1.70
2018-06-22T01:57:00.811Z,2.03
2018-06-22T01:59:28.729Z,2.77
2018-06-22T02:01:56.809Z,1.67
2018-06-22T02:04:24.890Z,1.63
2018-06-22T02:06:52.961Z,1.97
2018-06-22T02:09:21.050Z,2.00
2018-06-22T02:11:49.141Z,1.87
2018-06-22T02:14:17.256Z,1.87
2018-06-22T02:16:45.296Z,2.60
2018-06-22T02:19:13.375Z,2.00
2018-06-22T02:21:41.422Z,3.07
2018-06-22T02:24:09.498Z,2.00
2018-06-22T02:26:37.550Z,2.50
2018-06-22T02:29:05.405Z,2.30
2018-06-22T02:31:33.494Z,2.13
2018-06-22T02:34:01.572Z,2.50
2018-06-22T02:36:29.650Z,2.40
2018-06-22T02:38:57.723Z,2.60
2018-06-22T02:41:25.694Z,2.70
2018-06-22T02:43:53.776Z,2.40
2018-06-22T02:46:21.847Z,2.23
2018-06-22T02:48:50.024Z,2.37
2018-06-22T02:51:17.954Z,2.03
2018-06-22T02:53:46.015Z,2.23
2018-06-22T02:56:14.095Z,2.50
2018-06-22T02:58:42.185Z,2.30
2018-06-22T03:01:10.267Z,3.20
2018-06-22T03:03:38.356Z,2.93
2018-06-22T03:06:06.439Z,2.60
2018-06-22T03:08:34.541Z,2.20
2018-06-22T03:11:02.623Z,2.20
2018-06-22T03:13:30.713Z,2.50
2018-06-22T03:15:58.830Z,2.60
2018-06-22T03:18:26.931Z,2.73
2018-06-22T03:20:55.052Z,2.07
2018-06-22T03:23:23.173Z,2.50
2018-06-22T03:25:51.046Z,3.13
2018-06-22T03:28:19.142Z,2.90
2018-06-22T03:30:47.249Z,2.53
2018-06-22T03:33:15.339Z,2.20
2018-06-22T03:35:43.443Z,3.00
2018-06-22T03:38:11.330Z,2.87
2018-06-22T03:40:39.454Z,2.27
2018-06-22T03:43:07.535Z,3.23
2018-06-22T03:45:35.617Z,2.47
2018-06-22T03:48:03.708Z,2.47
2018-06-22T03:50:31.839Z,2.40
2018-06-22T03:52:59.775Z,2.20
2018-06-22T03:55:27.874Z,2.30
2018-06-22T03:57:56.011Z,2.00
2018-06-22T04:00:24.115Z,2.73
2018-06-22T04:02:52.199Z,2.80
2018-06-22T04:05:20.312Z,2.50
2018-06-22T04:07:48.196Z,2.47
2018-06-22T04:10:16.284Z,3.10
2018-06-22T04:12:44.376Z,4.20
2018-06-22T04:15:12.514Z,3.37
2018-06-22T04:17:46.030Z,4.23
2018-06-22T04:20:14.151Z,3.67
2018-06-22T04:22:42.341Z,2.70
2018-06-22T04:25:10.423Z,3.30
2018-06-22T04:27:38.693Z,2.40
2018-06-22T04:30:06.771Z,2.73
2018-06-22T04:32:34.872Z,3.37
2018-06-22T04:35:02.987Z,3.30
2018-06-22T04:37:31.088Z,4.10
2018-06-22T04:39:59.179Z,3.37
2018-06-22T04:42:27.286Z,2.90
2018-06-22T04:44:55.576Z,3.30
2018-06-22T04:47:23.732Z,2.43
2018-06-22T04:49:51.963Z,2.00
2018-06-22T04:52:20.271Z,2.50
2018-06-22T04:54:48.368Z,2.80
2018-06-22T04:57:16.455Z,4.60
2018-06-22T04:59:44.598Z,2.43
2018-06-22T05:02:12.554Z,2.40
2018-06-22T05:04:40.659Z,2.53
2018-06-22T05:07:08.771Z,2.20
2018-06-22T05:09:36.831Z,1.70
2018-06-22T05:12:04.949Z,1.70
2018-06-22T05:14:33.087Z,1.37
2018-06-22T05:17:01.180Z,1.60
2018-06-22T05:19:29.271Z,1.30
2018-06-22T05:21:57.391Z,1.20
2018-06-22T05:24:25.531Z,1.20
2018-06-22T05:26:53.615Z,1.40
2018-06-22T05:29:21.722Z,1.40
2018-06-22T05:31:49.824Z,1.60
2018-06-22T05:34:17.904Z,1.90
2018-06-22T05:36:46.061Z,1.50
2018-06-22T05:39:13.918Z,1.40
2018-06-22T05:41:42.032Z,1.10
2018-06-22T05:44:10.407Z,1.63
2018-06-22T05:46:38.523Z,1.13
2018-06-22T05:49:06.779Z,1.10
2018-06-22T05:51:34.876Z,1.10
2018-06-22T05:54:03.047Z,1.00
2018-06-22T05:56:31.201Z,1.00
2018-06-22T05:58:59.395Z,0.80
2018-06-22T06:01:27.571Z,0.80
2018-06-22T06:03:55.635Z,0.83
2018-06-22T06:06:23.732Z,0.90
2018-06-22T06:08:51.828Z,0.80
2018-06-22T06:11:19.691Z,0.90
2018-06-22T06:13:47.829Z,0.70
2018-06-22T06:16:15.901Z,0.70
2018-06-22T06:18:43.866Z,0.90
2018-06-22T06:21:12.028Z,0.90
2018-06-22T06:23:40.151Z,1.00
2018-06-22T06:26:08.236Z,0.80
2018-06-22T06:28:36.420Z,0.70
2018-06-22T06:31:04.504Z,0.70
2018-06-22T06:33:33.207Z,0.70
2018-06-22T06:36:01.278Z,0.67
2018-06-22T06:38:29.358Z,0.80
2018-06-22T06:40:57.473Z,0.60
2018-06-22T06:43:25.563Z,0.80
2018-06-22T06:45:53.696Z,1.00
2018-06-22T06:48:21.832Z,0.60
2018-06-22T06:50:49.916Z,0.80
2018-06-22T06:53:18.014Z,0.80
2018-06-22T06:55:46.094Z,0.93
2018-06-22T06:58:14.203Z,1.00
2018-06-22T07:00:42.325Z,0.70
2018-06-22T07:03:10.440Z,0.80
2018-06-22T07:05:38.540Z,0.80
2018-06-22T07:08:06.661Z,0.70
2018-06-22T07:10:34.771Z,1.00
2018-06-22T07:13:02.880Z,0.90
2018-06-22T07:15:35.226Z,0.73
2018-06-22T07:18:03.344Z,0.70
2018-06-22T07:23:06.180Z,0.60
2018-06-22T07:25:34.351Z,0.60
2018-06-22T07:28:02.519Z,0.87
2018-06-22T07:30:30.638Z,0.73
2018-06-22T07:32:58.826Z,0.70
2018-06-22T07:35:26.969Z,0.80
2018-06-22T07:37:55.112Z,0.67
2018-06-22T07:40:23.208Z,0.70
2018-06-22T07:42:51.307Z,0.70
2018-06-22T07:45:19.441Z,0.60
2018-06-22T07:47:47.519Z,0.80
2018-06-22T07:50:15.607Z,0.50
2018-06-22T07:52:43.703Z,0.60
2018-06-22T07:55:11.960Z,0.63
2018-06-22T07:57:40.006Z,1.00
2018-06-22T08:00:08.120Z,1.33
2018-06-22T08:02:36.212Z,0.80
2018-06-22T08:05:04.494Z,0.80
2018-06-22T08:07:32.591Z,0.80
2018-06-22T08:10:00.687Z,0.70
2018-06-22T08:12:28.799Z,0.97
2018-06-22T08:14:57.033Z,0.80
2018-06-22T08:17:25.205Z,0.80
2018-06-22T08:19:53.307Z,0.93
2018-06-22T08:22:21.420Z,1.17
2018-06-22T08:24:49.524Z,0.70
2018-06-22T08:27:17.638Z,1.20
2018-06-22T08:29:45.728Z,1.57
2018-06-22T08:32:13.822Z,1.43
2018-06-22T08:34:41.949Z,3.30
2018-06-22T08:37:10.067Z,1.13
2018-06-22T08:39:38.183Z,1.13
2018-06-22T08:42:06.384Z,0.90
2018-06-22T08:44:34.434Z,1.03
2018-06-22T08:47:02.812Z,0.90
2018-06-22T08:49:30.931Z,1.30
2018-06-22T08:51:58.803Z,0.97
2018-06-22T08:54:26.973Z,1.30
2018-06-22T08:56:55.099Z,1.10
2018-06-22T08:59:23.199Z,1.10
2018-06-22T09:01:51.295Z,1.10
2018-06-22T09:04:19.456Z,1.17
2018-06-22T09:06:47.569Z,1.23
2018-06-22T09:09:15.776Z,1.33
2018-06-22T09:11:43.892Z,1.37
2018-06-22T09:14:11.992Z,1.50
2018-06-22T09:16:40.164Z,1.63
2018-06-22T09:19:08.277Z,1.70
2018-06-22T09:21:36.364Z,1.73
2018-06-22T09:24:04.477Z,2.20
2018-06-22T09:26:32.624Z,1.30
2018-06-22T09:29:00.743Z,1.30
2018-06-22T09:31:28.863Z,1.30
2018-06-22T09:33:56.955Z,1.20
2018-06-22T09:36:25.104Z,1.20
2018-06-22T09:38:53.247Z,1.40
2018-06-22T09:41:21.420Z,1.43
2018-06-22T09:43:49.504Z,1.50
2018-06-22T09:46:17.743Z,1.50
2018-06-22T09:48:46.168Z,1.13
2018-06-22T09:51:14.300Z,1.50
2018-06-22T09:53:42.397Z,1.80
2018-06-22T09:56:10.516Z,1.73
2018-06-22T09:58:38.604Z,2.43
2018-06-22T10:01:06.840Z,2.03
2018-06-22T10:03:35.040Z,1.50
2018-06-22T10:06:03.149Z,1.53
2018-06-22T10:08:31.283Z,1.07
2018-06-22T10:10:59.415Z,1.27
2018-06-22T10:13:27.524Z,2.97
2018-06-22T10:15:55.947Z,1.93
2018-06-22T10:18:25.663Z,1.20
2018-06-22T10:20:53.869Z,1.63
2018-06-22T10:23:22.104Z,1.50
2018-06-22T10:25:50.245Z,1.63
2018-06-22T10:28:18.349Z,1.73
2018-06-22T10:30:46.451Z,1.50
2018-06-22T10:33:14.548Z,0.70
2018-06-22T10:35:42.712Z,1.90
2018-06-22T10:38:10.809Z,1.50
2018-06-22T10:40:38.916Z,1.50
2018-06-22T10:43:07.369Z,1.80
2018-06-22T10:45:35.507Z,2.37
2018-06-22T10:48:03.608Z,1.73
2018-06-22T10:50:31.676Z,1.63
2018-06-22T10:52:59.568Z,1.63
2018-06-22T10:55:27.464Z,1.70
2018-06-22T10:57:55.591Z,1.83
2018-06-22T11:00:23.723Z,1.73
2018-06-22T11:02:51.903Z,1.53
2018-06-22T11:05:26.625Z,1.33
2018-06-22T11:07:54.740Z,1.23
2018-06-22T11:10:22.839Z,1.80
2018-06-22T11:12:50.919Z,1.47
2018-06-22T11:15:18.991Z,1.30
2018-06-22T11:17:47.119Z,2.23
2018-06-22T11:20:15.233Z,1.63
2018-06-22T11:22:43.335Z,1.43
2018-06-22T11:25:11.543Z,1.30
2018-06-22T11:27:39.644Z,1.60
2018-06-22T11:30:07.771Z,1.27
2018-06-22T11:32:35.972Z,1.67
2018-06-22T11:35:04.111Z,1.50
2018-06-22T11:37:32.663Z,1.87
2018-06-22T11:40:00.775Z,2.00
2018-06-22T11:42:28.900Z,1.60
2018-06-22T11:44:57.048Z,1.70
2018-06-22T11:47:25.248Z,1.33
2018-06-22T11:49:53.365Z,1.90
2018-06-22T11:52:21.471Z,2.07
2018-06-22T11:54:49.569Z,1.47
2018-06-22T11:57:17.752Z,1.63
2018-06-22T11:59:45.871Z,2.30
2018-06-22T12:02:13.967Z,1.70
2018-06-22T12:04:42.112Z,2.37
2018-06-22T12:07:10.255Z,2.00
2018-06-22T12:09:38.387Z,1.90
2018-06-22T12:12:06.512Z,1.93
2018-06-22T12:14:34.648Z,1.33
2018-06-22T12:17:02.759Z,2.37
2018-06-22T12:19:30.851Z,1.80
2018-06-22T12:21:58.958Z,1.53
2018-06-22T12:24:26.886Z,1.23
2018-06-22T12:26:54.985Z,1.73
2018-06-22T12:29:23.194Z,2.00
2018-06-22T12:31:51.511Z,2.10
2018-06-22T12:34:19.640Z,2.20
2018-06-22T12:36:47.762Z,2.47
2018-06-22T12:39:15.863Z,2.37
2018-06-22T12:41:44.535Z,2.27
2018-06-22T12:44:12.683Z,1.80
2018-06-22T12:46:40.801Z,1.40
2018-06-22T12:49:09.049Z,1.93
2018-06-22T12:51:37.111Z,1.90
2018-06-22T12:54:05.310Z,2.37
2018-06-22T12:56:33.428Z,2.53
2018-06-22T12:59:01.536Z,1.33
2018-06-22T13:01:29.439Z,2.13
2018-06-22T13:03:57.547Z,4.33
2018-06-22T13:06:25.667Z,1.00
2018-06-22T13:08:53.776Z,1.50
2018-06-22T13:11:21.868Z,1.30
2018-06-22T13:13:49.996Z,1.60
2018-06-22T13:16:18.080Z,1.47
2018-06-22T13:18:46.178Z,2.43
2018-06-22T13:21:14.282Z,2.23
2018-06-22T13:23:42.400Z,1.70
2018-06-22T13:26:10.511Z,1.97
2018-06-22T13:28:38.467Z,1.90
2018-06-22T13:31:06.608Z,1.53
2018-06-22T13:33:34.555Z,2.23
2018-06-22T13:36:02.711Z,1.80
2018-06-22T13:38:30.849Z,1.90
2018-06-22T13:40:58.958Z,1.30
2018-06-22T13:43:27.068Z,1.33
2018-06-22T13:45:55.153Z,1.60
2018-06-22T13:48:23.277Z,1.60
2018-06-22T13:50:51.162Z,1.80
2018-06-22T13:53:19.231Z,1.73
2018-06-22T13:55:47.343Z,1.50
2018-06-22T13:58:15.442Z,1.60
2018-06-22T14:00:43.536Z,1.77
2018-06-22T14:03:11.652Z,1.90
2018-06-22T14:05:45.276Z,1.53
2018-06-22T14:08:13.422Z,1.63
2018-06-22T14:10:41.503Z,2.67
2018-06-22T14:13:09.653Z,1.40
2018-06-22T14:15:37.746Z,1.70
2018-06-22T14:18:05.860Z,1.37
2018-06-22T14:20:40.516Z,1.80
2018-06-22T14:23:08.637Z,1.90
2018-06-22T14:25:36.588Z,1.00
2018-06-22T14:28:04.695Z,1.50
2018-06-22T14:30:32.794Z,1.27
2018-06-22T14:33:00.904Z,1.90
2018-06-22T14:35:28.800Z,1.40
2018-06-22T14:37:56.708Z,1.90
2018-06-22T14:40:24.814Z,1.80
2018-06-22T14:42:52.920Z,1.80
2018-06-22T14:45:21.056Z,1.53
2018-06-22T14:47:50.069Z,1.40
2018-06-22T14:50:18.592Z,1.50
2018-06-22T14:52:47.491Z,2.20
2018-06-22T14:55:21.040Z,1.70
2018-06-22T14:57:54.404Z,1.70
2018-06-22T15:00:28.043Z,1.90
2018-06-22T15:03:01.480Z,1.60
2018-06-22T15:05:34.864Z,1.80
2018-06-22T15:08:04.872Z,2.10
2018-06-22T15:10:32.947Z,1.80
2018-06-22T15:13:01.075Z,2.40
2018-06-22T15:15:29.295Z,1.53
2018-06-22T15:17:57.387Z,2.47
2018-06-22T15:20:25.310Z,1.70
2018-06-22T15:22:53.443Z,1.97
2018-06-22T15:25:21.544Z,1.70
2018-06-22T15:27:49.650Z,1.50
2018-06-22T15:30:17.754Z,1.77
2018-06-22T15:32:45.831Z,1.97
2018-06-22T15:35:19.327Z,1.80
2018-06-22T15:37:52.843Z,2.23
2018-06-22T15:40:26.472Z,2.30
2018-06-22T15:42:59.955Z,2.17
2018-06-22T15:45:33.505Z,2.13
2018-06-22T15:48:07.028Z,2.67
2018-06-22T15:50:40.656Z,1.97
2018-06-22T15:53:14.208Z,2.10
2018-06-22T15:55:44.549Z,1.40
2018-06-22T15:58:12.677Z,1.60
2018-06-22T16:00:40.781Z,2.23
2018-06-22T16:03:14.449Z,1.80
2018-06-22T16:05:42.400Z,1.83
2018-06-22T16:08:10.582Z,2.60
2018-06-22T16:10:38.796Z,1.93
2018-06-22T16:13:12.255Z,1.93
2018-06-22T16:15:45.745Z,2.87
2018-06-22T16:18:19.296Z,2.50
2018-06-22T16:20:53.056Z,2.20
2018-06-22T16:23:26.651Z,2.37
2018-06-22T16:26:00.307Z,1.70
2018-06-22T16:28:28.431Z,2.33
2018-06-22T16:30:56.539Z,2.00
2018-06-22T16:33:24.639Z,1.50
2018-06-22T16:35:52.796Z,1.57
2018-06-22T16:38:20.896Z,1.67
2018-06-22T16:40:48.991Z,1.57
2018-06-22T16:43:17.109Z,1.83
2018-06-22T16:45:45.195Z,1.83
2018-06-22T16:48:13.308Z,2.40
2018-06-22T16:50:41.415Z,2.03
2018-06-22T16:53:16.101Z,2.77
2018-06-22T16:55:44.255Z,2.10
2018-06-22T16:58:17.808Z,2.00
2018-06-22T17:00:45.902Z,1.40
2018-06-22T17:03:14.011Z,1.93
2018-06-22T17:05:42.153Z,2.30
2018-06-22T17:08:15.683Z,1.37
2018-06-22T17:10:49.075Z,2.33
2018-06-22T17:13:22.595Z,2.20
2018-06-22T17:15:56.056Z,2.30
2018-06-22T17:18:29.623Z,2.37
2018-06-22T17:20:57.788Z,1.67
2018-06-22T17:23:25.936Z,2.20
2018-06-22T17:25:54.621Z,1.90
2018-06-22T17:28:23.349Z,1.80
2018-06-22T17:30:51.451Z,2.50
2018-06-22T17:33:19.551Z,1.90
2018-06-22T17:35:47.664Z,2.10
2018-06-22T17:38:15.576Z,2.03
2018-06-22T17:40:43.671Z,2.10
2018-06-22T17:43:11.548Z,2.43
2018-06-22T17:45:39.703Z,2.20
2018-06-22T17:48:07.812Z,2.30
2018-06-22T17:50:35.893Z,2.27
2018-06-22T17:53:04.012Z,2.10
2018-06-22T17:55:32.136Z,2.70
2018-06-22T17:58:00.240Z,2.07
2018-06-22T18:00:33.547Z,2.40
2018-06-22T18:03:07.001Z,2.60
2018-06-22T18:05:40.724Z,2.90
2018-06-22T18:08:14.155Z,2.03
2018-06-22T18:10:47.671Z,2.07
2018-06-22T18:13:15.783Z,1.90
2018-06-22T18:15:43.990Z,2.30
2018-06-22T18:18:12.144Z,2.10
2018-06-22T18:20:40.228Z,1.70
2018-06-22T18:23:08.435Z,1.67
2018-06-22T18:25:36.452Z,1.70
2018-06-22T18:28:04.348Z,2.60
2018-06-22T18:30:33.186Z,1.57
2018-06-22T18:33:01.655Z,1.63
2018-06-22T18:35:29.786Z,1.63
2018-06-22T18:37:57.883Z,2.03
2018-06-22T18:40:25.976Z,2.27
2018-06-22T18:42:54.092Z,1.50
2018-06-22T18:45:22.163Z,1.77
2018-06-22T18:47:50.284Z,2.23
2018-06-22T18:50:18.375Z,1.83
2018-06-22T18:52:51.960Z,3.20
2018-06-22T18:55:25.628Z,1.50
2018-06-22T18:57:59.033Z,1.70
2018-06-22T19:00:32.515Z,2.27
2018-06-22T19:03:05.919Z,1.27
2018-06-22T19:05:34.011Z,1.80
2018-06-22T19:08:02.140Z,1.30
2018-06-22T19:10:30.249Z,1.60
2018-06-22T19:12:58.368Z,1.47
2018-06-22T19:15:26.231Z,1.40
2018-06-22T19:17:54.337Z,1.53
2018-06-22T19:20:22.440Z,1.60
2018-06-22T19:22:50.547Z,1.00
2018-06-22T19:25:18.755Z,2.17
2018-06-22T19:27:46.705Z,1.33
2018-06-22T19:30:14.799Z,1.40
2018-06-22T19:32:42.930Z,1.70
2018-06-22T19:35:11.060Z,1.50
2018-06-22T19:37:39.273Z,2.40
2018-06-22T19:40:07.404Z,1.40
2018-06-22T19:42:35.491Z,1.60
2018-06-22T19:45:09.204Z,1.90
2018-06-22T19:47:42.773Z,2.30
2018-06-22T19:50:16.410Z,1.70
2018-06-22T19:52:50.014Z,1.80
2018-06-22T19:55:18.064Z,2.10
2018-06-22T19:57:46.167Z,2.53
2018-06-22T20:00:14.304Z,1.80
2018-06-22T20:02:42.388Z,2.43
2018-06-22T20:05:10.488Z,1.67
2018-06-22T20:07:38.600Z,2.10
2018-06-22T20:10:10.049Z,2.20
2018-06-22T20:12:38.155Z,2.00
2018-06-22T20:15:06.279Z,1.87
2018-06-22T20:17:34.390Z,1.13
2018-06-22T20:20:02.503Z,1.50
2018-06-22T20:22:30.650Z,1.60
2018-06-22T20:25:04.180Z,2.10
2018-06-22T20:27:32.272Z,1.40
2018-06-22T20:30:00.377Z,1.90
2018-06-22T20:32:28.505Z,2.13
2018-06-22T20:35:02.144Z,1.40
2018-06-22T20:37:35.787Z,2.30
2018-06-22T20:40:09.729Z,2.13
2018-06-22T20:42:43.114Z,2.33
2018-06-22T20:45:16.622Z,2.17
2018-06-22T20:47:50.391Z,2.27
2018-06-22T20:50:24.219Z,1.80
2018-06-22T20:52:52.331Z,1.20
2018-06-22T20:55:20.526Z,1.73
2018-06-22T20:57:48.621Z,1.50
2018-06-22T21:00:16.741Z,1.73
2018-06-22T21:02:44.861Z,1.90
2018-06-22T21:05:12.973Z,2.90
2018-06-22T21:07:41.087Z,2.40
2018-06-22T21:10:09.055Z,1.90
2018-06-22T21:12:40.411Z,1.70
2018-06-22T21:15:06.145Z,1.50
2018-06-22T21:17:34.267Z,2.83
2018-06-22T21:20:02.608Z,1.97
2018-06-22T21:22:30.720Z,1.70
2018-06-22T21:24:58.819Z,1.67
2018-06-22T21:27:32.347Z,2.67
2018-06-22T21:30:05.756Z,1.37
2018-06-22T21:32:39.183Z,2.10
2018-06-22T21:35:12.807Z,2.00
2018-06-22T21:37:46.172Z,2.80
2018-06-22T21:40:14.274Z,1.73
2018-06-22T21:42:42.387Z,1.80
2018-06-22T21:45:10.508Z,1.77
2018-06-22T21:47:38.470Z,1.90
2018-06-22T21:50:07.368Z,1.63
2018-06-22T21:52:35.475Z,1.83
2018-06-22T21:55:04.664Z,2.50
2018-06-22T21:57:32.787Z,1.70
2018-06-22T22:00:00.887Z,2.30
2018-06-22T22:02:29.008Z,2.13
2018-06-22T22:04:57.131Z,1.97
2018-06-22T22:07:25.229Z,2.60
2018-06-22T22:09:53.339Z,2.17
2018-06-22T22:12:21.423Z,2.03
2018-06-22T22:14:49.308Z,2.70
2018-06-22T22:17:17.191Z,2.40
2018-06-22T22:19:45.311Z,2.47
2018-06-22T22:22:13.396Z,2.07
2018-06-22T22:24:41.303Z,2.63
2018-06-22T22:27:09.376Z,2.70
2018-06-22T22:29:37.507Z,2.53
2018-06-22T22:32:05.623Z,2.90
2018-06-22T22:34:33.723Z,2.70
2018-06-22T22:37:01.845Z,2.90
2018-06-22T22:39:29.959Z,1.60
2018-06-22T22:41:58.071Z,2.90
2018-06-22T22:44:26.152Z,1.70
2018-06-22T22:46:54.231Z,2.10
2018-06-22T22:49:22.319Z,2.50
2018-06-22T22:51:50.439Z,2.73
2018-06-22T22:54:18.524Z,4.00
2018-06-22T22:56:46.667Z,3.17
2018-06-22T22:59:14.775Z,2.87
2018-06-22T23:01:42.856Z,2.10
2018-06-22T23:04:10.748Z,2.50
2018-06-22T23:06:38.870Z,3.57
2018-06-22T23:09:07.919Z,2.10
2018-06-22T23:11:36.031Z,3.10
2018-06-22T23:14:04.332Z,3.17
2018-06-22T23:16:32.497Z,2.60
2018-06-22T23:19:00.600Z,3.47
2018-06-22T23:21:28.715Z,3.70
2018-06-22T23:23:56.840Z,3.00
2018-06-22T23:26:25.033Z,3.27
2018-06-22T23:28:53.083Z,3.60
2018-06-22T23:31:21.160Z,2.60
2018-06-22T23:33:49.253Z,2.27
2018-06-22T23:36:17.355Z,2.43
2018-06-22T23:38:45.559Z,4.00
2018-06-22T23:41:13.686Z,3.50
2018-06-22T23:43:41.767Z,2.60
2018-06-22T23:46:09.911Z,3.97
2018-06-22T23:48:37.960Z,1.67
2018-06-22T23:51:06.044Z,3.27
2018-06-22T23:53:34.140Z,3.37
2018-06-22T23:56:02.208Z,2.37
2018-06-22T23:58:30.324Z,2.90
